Terminal Aerodrome Forecast
Issued by NWS Green Bay, WI

Home | Current Version | Previous Version | Text Only | Print | Product List | Glossary Off
Versions: 1 2 3 4 5 6 7 8 9 10 11 12 13 14 15 16 17

000
FTUS43 KGRB 220520
TAFGRB
TAF
KGRB 220520Z 2206/2306 17010KT P6SM SCT050 WS010/19035KT
     FM221100 18009KT P6SM -SHRA OVC040
     FM221400 20010G15KT P6SM -SHRA SCT020 BKN030
      TEMPO 2215/2219 5SM SHRA BR BKN020
     FM221900 27010KT P6SM VCSH BKN025
     FM222200 29008KT P6SM SCT030 BKN100
     FM230100 24003KT P6SM SCT100=

USA.gov is the U.S. government's official web portal to all federal, state and local government web resources and services.